sensor_id;sensor_type;location;lat;lon;timestamp;pressure;altitude;pressure_sealevel;temperature;humidity
24788;BME280;12883;52.662;5.196;2023-07-13T00:00:53;101235.66;;;17.70;100.00
24788;BME280;12883;52.662;5.196;2023-07-13T00:03:18;101253.88;;;17.79;100.00
24788;BME280;12883;52.662;5.196;2023-07-13T00:05:44;101193.34;;;17.37;100.00
24788;BME280;12883;52.662;5.196;2023-07-13T00:08:09;101214.91;;;17.54;100.00
24788;BME280;12883;52.662;5.196;2023-07-13T00:10:42;101183.63;;;17.36;100.00
24788;BME280;12883;52.662;5.196;2023-07-13T00:13:08;101257.63;;;17.78;100.00
24788;BME280;12883;52.662;5.196;2023-07-13T00:15:34;101255.50;;;17.80;100.00
24788;BME280;12883;52.662;5.196;2023-07-13T00:18:00;101258.41;;;17.79;100.00
24788;BME280;12883;52.662;5.196;2023-07-13T00:20:26;101248.50;;;17.79;100.00
24788;BME280;12883;52.662;5.196;2023-07-13T00:22:52;101257.63;;;17.78;100.00
24788;BME280;12883;52.662;5.196;2023-07-13T00:25:19;101195.31;;;17.42;100.00
24788;BME280;12883;52.662;5.196;2023-07-13T00:27:47;101158.66;;;17.24;100.00
24788;BME280;12883;52.662;5.196;2023-07-13T00:30:14;101234.25;;;17.67;100.00
24788;BME280;12883;52.662;5.196;2023-07-13T00:32:39;101249.44;;;17.73;100.00
24788;BME280;12883;52.662;5.196;2023-07-13T00:35:05;101240.13;;;17.64;100.00
24788;BME280;12883;52.662;5.196;2023-07-13T00:37:31;101253.75;;;17.74;100.00
24788;BME280;12883;52.662;5.196;2023-07-13T00:39:56;101247.25;;;17.70;100.00
24788;BME280;12883;52.662;5.196;2023-07-13T00:42:22;101249.44;;;17.73;100.00
24788;BME280;12883;52.662;5.196;2023-07-13T00:47:51;101243.72;;;17.70;100.00
24788;BME280;12883;52.662;5.196;2023-07-13T00:50:18;101232.88;;;17.65;100.00
24788;BME280;12883;52.662;5.196;2023-07-13T00:52:48;101226.69;;;17.64;100.00
24788;BME280;12883;52.662;5.196;2023-07-13T00:55:15;101233.13;;;17.63;100.00
24788;BME280;12883;52.662;5.196;2023-07-13T00:57:42;101225.28;;;17.73;100.00
24788;BME280;12883;52.662;5.196;2023-07-13T01:00:09;101227.72;;;17.75;100.00
24788;BME280;12883;52.662;5.196;2023-07-13T01:02:39;101234.97;;;17.74;100.00
24788;BME280;12883;52.662;5.196;2023-07-13T01:05:20;101235.78;;;17.75;100.00
24788;BME280;12883;52.662;5.196;2023-07-13T01:07:48;101237.75;;;17.79;100.00
24788;BME280;12883;52.662;5.196;2023-07-13T01:10:15;101236.13;;;17.78;100.00
24788;BME280;12883;52.662;5.196;2023-07-13T01:12:40;101224.47;;;17.84;100.00
24788;BME280;12883;52.662;5.196;2023-07-13T01:15:45;101231.09;;;17.82;100.00
24788;BME280;12883;52.662;5.196;2023-07-13T01:18:15;101194.03;;;17.56;100.00
24788;BME280;12883;52.662;5.196;2023-07-13T01:20:50;101189.00;;;17.48;100.00
24788;BME280;12883;52.662;5.196;2023-07-13T01:23:15;101232.03;;;17.76;100.00
24788;BME280;12883;52.662;5.196;2023-07-13T01:25:41;101229.59;;;17.74;100.00
24788;BME280;12883;52.662;5.196;2023-07-13T01:28:08;101236.84;;;17.74;100.00
24788;BME280;12883;52.662;5.196;2023-07-13T01:30:36;101226.34;;;17.72;100.00
24788;BME280;12883;52.662;5.196;2023-07-13T01:33:08;101225.84;;;17.75;100.00
24788;BME280;12883;52.662;5.196;2023-07-13T01:35:35;101234.50;;;17.77;100.00
24788;BME280;12883;52.662;5.196;2023-07-13T01:38:00;101218.50;;;17.71;100.00
24788;BME280;12883;52.662;5.196;2023-07-13T01:40:27;101161.00;;;17.32;100.00
24788;BME280;12883;52.662;5.196;2023-07-13T01:42:52;101226.56;;;17.71;100.00
24788;BME280;12883;52.662;5.196;2023-07-13T01:45:17;101222.84;;;17.60;100.00
24788;BME280;12883;52.662;5.196;2023-07-13T01:47:43;101230.66;;;17.62;100.00
24788;BME280;12883;52.662;5.196;2023-07-13T01:50:08;101236.47;;;17.59;100.00
24788;BME280;12883;52.662;5.196;2023-07-13T01:52:34;101187.81;;;17.32;100.00
24788;BME280;12883;52.662;5.196;2023-07-13T01:54:59;101247.47;;;17.57;100.00
24788;BME280;12883;52.662;5.196;2023-07-13T01:57:25;101240.69;;;17.55;100.00
24788;BME280;12883;52.662;5.196;2023-07-13T01:59:50;101252.84;;;17.57;100.00
24788;BME280;12883;52.662;5.196;2023-07-13T02:02:15;101246.88;;;17.55;100.00
24788;BME280;12883;52.662;5.196;2023-07-13T02:04:41;101252.72;;;17.52;100.00
24788;BME280;12883;52.662;5.196;2023-07-13T02:07:08;101218.25;;;17.26;100.00
24788;BME280;12883;52.662;5.196;2023-07-13T02:09:33;101233.28;;;17.27;100.00
24788;BME280;12883;52.662;5.196;2023-07-13T02:11:58;101261.69;;;17.46;100.00
24788;BME280;12883;52.662;5.196;2023-07-13T02:14:24;101199.97;;;17.12;100.00
24788;BME280;12883;52.662;5.196;2023-07-13T02:16:49;101257.38;;;17.45;100.00
24788;BME280;12883;52.662;5.196;2023-07-13T02:19:14;101248.84;;;17.37;100.00
24788;BME280;12883;52.662;5.196;2023-07-13T02:21:40;101257.88;;;17.42;100.00
24788;BME280;12883;52.662;5.196;2023-07-13T02:24:05;101192.22;;;16.92;100.00
24788;BME280;12883;52.662;5.196;2023-07-13T02:26:31;101219.88;;;17.16;100.00
24788;BME280;12883;52.662;5.196;2023-07-13T02:28:56;101262.03;;;17.38;100.00
24788;BME280;12883;52.662;5.196;2023-07-13T02:31:21;101201.44;;;16.96;100.00
24788;BME280;12883;52.662;5.196;2023-07-13T02:33:47;101190.72;;;16.96;100.00
24788;BME280;12883;52.662;5.196;2023-07-13T02:36:13;101251.06;;;17.28;100.00
24788;BME280;12883;52.662;5.196;2023-07-13T02:38:39;101261.88;;;17.33;100.00
24788;BME280;12883;52.662;5.196;2023-07-13T02:41:06;101267.84;;;17.35;100.00
24788;BME280;12883;52.662;5.196;2023-07-13T02:43:32;101245.78;;;17.22;100.00
24788;BME280;12883;52.662;5.196;2023-07-13T02:46:02;101282.28;;;17.34;100.00
24788;BME280;12883;52.662;5.196;2023-07-13T02:48:33;101273.22;;;17.35;100.00
24788;BME280;12883;52.662;5.196;2023-07-13T02:50:58;101256.28;;;17.35;100.00
24788;BME280;12883;52.662;5.196;2023-07-13T02:53:23;101271.03;;;17.44;100.00
24788;BME280;12883;52.662;5.196;2023-07-13T02:55:49;101268.94;;;17.46;100.00
24788;BME280;12883;52.662;5.196;2023-07-13T02:58:14;101277.66;;;17.41;100.00
24788;BME280;12883;52.662;5.196;2023-07-13T03:00:43;101269.75;;;17.46;100.00
24788;BME280;12883;52.662;5.196;2023-07-13T03:03:09;101254.81;;;17.39;100.00
24788;BME280;12883;52.662;5.196;2023-07-13T03:05:34;101275.13;;;17.46;100.00
24788;BME280;12883;52.662;5.196;2023-07-13T03:08:00;101268.13;;;17.45;100.00
24788;BME280;12883;52.662;5.196;2023-07-13T03:10:25;101256.69;;;17.38;100.00
24788;BME280;12883;52.662;5.196;2023-07-13T03:12:50;101264.84;;;17.43;100.00
24788;BME280;12883;52.662;5.196;2023-07-13T03:15:16;101236.69;;;17.23;100.00
24788;BME280;12883;52.662;5.196;2023-07-13T03:17:41;101197.50;;;16.99;100.00
24788;BME280;12883;52.662;5.196;2023-07-13T03:20:07;101264.56;;;17.33;100.00
24788;BME280;12883;52.662;5.196;2023-07-13T03:22:32;101274.41;;;17.39;100.00
24788;BME280;12883;52.662;5.196;2023-07-13T03:24:58;101212.16;;;16.96;100.00
24788;BME280;12883;52.662;5.196;2023-07-13T03:27:23;101276.03;;;17.40;100.00
24788;BME280;12883;52.662;5.196;2023-07-13T03:29:48;101264.25;;;17.41;100.00
24788;BME280;12883;52.662;5.196;2023-07-13T03:32:14;101271.94;;;17.38;100.00
24788;BME280;12883;52.662;5.196;2023-07-13T03:34:39;101281.06;;;17.37;100.00
24788;BME280;12883;52.662;5.196;2023-07-13T03:37:05;101232.44;;;17.04;100.00
24788;BME280;12883;52.662;5.196;2023-07-13T03:39:30;101256.84;;;17.14;100.00
24788;BME280;12883;52.662;5.196;2023-07-13T03:41:56;101281.94;;;17.31;100.00
24788;BME280;12883;52.662;5.196;2023-07-13T03:44:21;101286.03;;;17.33;100.00
24788;BME280;12883;52.662;5.196;2023-07-13T03:46:46;101288.13;;;17.31;100.00
24788;BME280;12883;52.662;5.196;2023-07-13T03:49:12;101274.94;;;17.30;100.00
24788;BME280;12883;52.662;5.196;2023-07-13T03:51:37;101280.31;;;17.30;100.00
24788;BME280;12883;52.662;5.196;2023-07-13T03:54:03;101283.97;;;17.35;100.00
24788;BME280;12883;52.662;5.196;2023-07-13T03:56:29;101283.13;;;17.35;100.00
24788;BME280;12883;52.662;5.196;2023-07-13T03:58:56;101277.88;;;17.28;100.00
24788;BME280;12883;52.662;5.196;2023-07-13T04:01:22;101266.44;;;17.21;100.00
24788;BME280;12883;52.662;5.196;2023-07-13T04:03:48;101263.41;;;17.18;100.00
24788;BME280;12883;52.662;5.196;2023-07-13T04:06:17;101299.38;;;17.40;100.00
24788;BME280;12883;52.662;5.196;2023-07-13T04:08:51;101287.81;;;17.39;100.00
24788;BME280;12883;52.662;5.196;2023-07-13T04:11:18;101301.38;;;17.44;100.00
24788;BME280;12883;52.662;5.196;2023-07-13T04:13:43;101237.16;;;17.08;100.00
24788;BME280;12883;52.662;5.196;2023-07-13T04:16:09;101292.03;;;17.47;100.00
24788;BME280;12883;52.662;5.196;2023-07-13T04:18:35;101239.94;;;17.13;100.00
24788;BME280;12883;52.662;5.196;2023-07-13T04:21:00;101202.94;;;16.92;100.00
24788;BME280;12883;52.662;5.196;2023-07-13T04:23:25;101285.84;;;17.46;100.00
24788;BME280;12883;52.662;5.196;2023-07-13T04:25:52;101302.78;;;17.58;100.00
24788;BME280;12883;52.662;5.196;2023-07-13T04:28:19;101258.75;;;17.36;100.00
24788;BME280;12883;52.662;5.196;2023-07-13T04:30:45;101309.78;;;17.59;100.00
24788;BME280;12883;52.662;5.196;2023-07-13T04:33:10;101296.84;;;17.56;100.00
24788;BME280;12883;52.662;5.196;2023-07-13T04:35:36;101291.78;;;17.48;100.00
24788;BME280;12883;52.662;5.196;2023-07-13T04:38:02;101302.22;;;17.56;100.00
24788;BME280;12883;52.662;5.196;2023-07-13T04:40:29;101318.06;;;17.69;100.00
24788;BME280;12883;52.662;5.196;2023-07-13T04:42:55;101306.38;;;17.75;100.00
24788;BME280;12883;52.662;5.196;2023-07-13T04:45:21;101320.41;;;17.77;100.00
24788;BME280;12883;52.662;5.196;2023-07-13T04:47:49;101318.44;;;17.84;100.00
24788;BME280;12883;52.662;5.196;2023-07-13T04:50:14;101328.25;;;17.90;100.00
24788;BME280;12883;52.662;5.196;2023-07-13T04:52:48;101255.63;;;17.51;100.00
24788;BME280;12883;52.662;5.196;2023-07-13T04:55:14;101308.63;;;17.90;100.00
24788;BME280;12883;52.662;5.196;2023-07-13T04:57:40;101334.31;;;17.97;100.00
24788;BME280;12883;52.662;5.196;2023-07-13T05:00:06;101329.03;;;18.02;100.00
24788;BME280;12883;52.662;5.196;2023-07-13T05:02:33;101333.00;;;18.11;100.00
24788;BME280;12883;52.662;5.196;2023-07-13T05:04:59;101285.16;;;17.85;100.00
24788;BME280;12883;52.662;5.196;2023-07-13T05:07:25;101298.78;;;17.95;100.00
24788;BME280;12883;52.662;5.196;2023-07-13T05:09:50;101275.22;;;17.86;100.00
24788;BME280;12883;52.662;5.196;2023-07-13T05:12:16;101278.84;;;17.91;100.00
24788;BME280;12883;52.662;5.196;2023-07-13T05:14:41;101352.16;;;18.38;100.00
24788;BME280;12883;52.662;5.196;2023-07-13T05:17:07;101348.75;;;18.42;100.00
24788;BME280;12883;52.662;5.196;2023-07-13T05:19:32;101359.97;;;18.51;100.00
24788;BME280;12883;52.662;5.196;2023-07-13T05:21:58;101353.88;;;18.55;100.00
24788;BME280;12883;52.662;5.196;2023-07-13T05:24:23;101348.41;;;18.39;100.00
24788;BME280;12883;52.662;5.196;2023-07-13T05:26:49;101373.72;;;18.66;100.00
24788;BME280;12883;52.662;5.196;2023-07-13T05:29:14;101358.72;;;18.70;100.00
24788;BME280;12883;52.662;5.196;2023-07-13T05:31:39;101362.81;;;18.72;100.00
24788;BME280;12883;52.662;5.196;2023-07-13T05:34:05;101373.56;;;18.72;100.00
24788;BME280;12883;52.662;5.196;2023-07-13T05:36:30;101387.59;;;18.74;100.00
24788;BME280;12883;52.662;5.196;2023-07-13T05:38:56;101379.63;;;18.79;100.00
24788;BME280;12883;52.662;5.196;2023-07-13T05:41:21;101376.47;;;18.82;100.00
24788;BME280;12883;52.662;5.196;2023-07-13T05:43:47;101378.59;;;18.80;100.00
24788;BME280;12883;52.662;5.196;2023-07-13T05:46:12;101300.19;;;18.32;100.00
24788;BME280;12883;52.662;5.196;2023-07-13T05:48:37;101385.34;;;18.83;100.00
24788;BME280;12883;52.662;5.196;2023-07-13T05:51:03;101370.53;;;18.80;100.00
24788;BME280;12883;52.662;5.196;2023-07-13T05:53:28;101394.34;;;18.88;100.00
24788;BME280;12883;52.662;5.196;2023-07-13T05:55:54;101366.88;;;18.75;100.00
24788;BME280;12883;52.662;5.196;2023-07-13T05:58:19;101384.50;;;18.94;100.00
24788;BME280;12883;52.662;5.196;2023-07-13T06:00:46;101385.06;;;18.96;100.00
24788;BME280;12883;52.662;5.196;2023-07-13T06:03:11;101383.66;;;18.93;100.00
24788;BME280;12883;52.662;5.196;2023-07-13T06:05:38;101400.41;;;18.95;100.00
24788;BME280;12883;52.662;5.196;2023-07-13T06:08:04;101353.06;;;18.83;100.00
24788;BME280;12883;52.662;5.196;2023-07-13T06:10:32;101330.53;;;18.72;100.00
24788;BME280;12883;52.662;5.196;2023-07-13T06:12:58;101390.31;;;19.02;100.00
24788;BME280;12883;52.662;5.196;2023-07-13T06:15:23;101394.13;;;19.06;100.00
24788;BME280;12883;52.662;5.196;2023-07-13T06:17:49;101392.63;;;19.10;100.00
24788;BME280;12883;52.662;5.196;2023-07-13T06:20:14;101393.75;;;19.14;100.00
24788;BME280;12883;52.662;5.196;2023-07-13T06:22:39;101414.25;;;19.15;100.00
24788;BME280;12883;52.662;5.196;2023-07-13T06:25:05;101409.91;;;19.14;100.00
24788;BME280;12883;52.662;5.196;2023-07-13T06:27:31;101366.28;;;18.84;100.00
24788;BME280;12883;52.662;5.196;2023-07-13T06:29:56;101407.31;;;19.19;100.00
24788;BME280;12883;52.662;5.196;2023-07-13T06:32:21;101378.09;;;19.11;100.00
24788;BME280;12883;52.662;5.196;2023-07-13T06:34:46;101423.38;;;19.42;100.00
24788;BME280;12883;52.662;5.196;2023-07-13T06:37:12;101405.81;;;19.23;100.00
24788;BME280;12883;52.662;5.196;2023-07-13T06:39:37;101431.22;;;19.44;100.00
24788;BME280;12883;52.662;5.196;2023-07-13T06:42:03;101443.28;;;19.41;100.00
24788;BME280;12883;52.662;5.196;2023-07-13T06:44:29;101358.88;;;18.91;100.00
24788;BME280;12883;52.662;5.196;2023-07-13T06:46:54;101442.53;;;19.46;100.00
24788;BME280;12883;52.662;5.196;2023-07-13T06:49:19;101439.84;;;19.46;100.00
24788;BME280;12883;52.662;5.196;2023-07-13T06:51:44;101429.28;;;19.56;100.00
24788;BME280;12883;52.662;5.196;2023-07-13T06:54:10;101430.84;;;19.85;100.00
24788;BME280;12883;52.662;5.196;2023-07-13T06:56:35;101434.69;;;19.89;100.00
24788;BME280;12883;52.662;5.196;2023-07-13T06:59:00;101452.91;;;19.82;100.00
24788;BME280;12883;52.662;5.196;2023-07-13T07:01:26;101449.38;;;19.81;100.00
24788;BME280;12883;52.662;5.196;2023-07-13T07:03:51;101386.50;;;19.43;100.00
24788;BME280;12883;52.662;5.196;2023-07-13T07:06:20;101455.56;;;19.65;100.00
24788;BME280;12883;52.662;5.196;2023-07-13T07:08:45;101394.47;;;19.38;100.00
24788;BME280;12883;52.662;5.196;2023-07-13T07:11:14;101455.53;;;19.93;100.00
24788;BME280;12883;52.662;5.196;2023-07-13T07:13:40;101392.88;;;19.53;100.00
24788;BME280;12883;52.662;5.196;2023-07-13T07:16:05;101430.94;;;19.73;100.00
24788;BME280;12883;52.662;5.196;2023-07-13T07:18:31;101342.34;;;19.27;100.00
24788;BME280;12883;52.662;5.196;2023-07-13T07:20:57;101469.78;;;20.05;100.00
24788;BME280;12883;52.662;5.196;2023-07-13T07:23:22;101465.84;;;19.68;100.00
24788;BME280;12883;52.662;5.196;2023-07-13T07:25:49;101480.00;;;19.47;100.00
24788;BME280;12883;52.662;5.196;2023-07-13T07:28:15;101483.72;;;19.18;100.00
24788;BME280;12883;52.662;5.196;2023-07-13T07:30:46;101469.97;;;19.03;100.00
24788;BME280;12883;52.662;5.196;2023-07-13T07:33:12;101471.97;;;18.96;100.00
24788;BME280;12883;52.662;5.196;2023-07-13T07:35:37;101441.84;;;18.71;100.00
24788;BME280;12883;52.662;5.196;2023-07-13T07:38:03;101416.44;;;18.39;100.00
24788;BME280;12883;52.662;5.196;2023-07-13T07:40:28;101402.13;;;18.50;100.00
24788;BME280;12883;52.662;5.196;2023-07-13T07:42:54;101455.50;;;18.70;100.00
24788;BME280;12883;52.662;5.196;2023-07-13T07:45:20;101398.75;;;18.20;100.00
24788;BME280;12883;52.662;5.196;2023-07-13T07:47:45;101456.25;;;18.54;100.00
24788;BME280;12883;52.662;5.196;2023-07-13T07:50:11;101456.38;;;18.59;100.00
24788;BME280;12883;52.662;5.196;2023-07-13T07:52:37;101397.22;;;18.24;100.00
24788;BME280;12883;52.662;5.196;2023-07-13T07:55:04;101452.41;;;18.61;100.00
24788;BME280;12883;52.662;5.196;2023-07-13T07:57:30;101435.19;;;18.62;100.00
24788;BME280;12883;52.662;5.196;2023-07-13T07:59:55;101453.25;;;18.90;100.00
24788;BME280;12883;52.662;5.196;2023-07-13T08:02:21;101399.69;;;18.60;100.00
24788;BME280;12883;52.662;5.196;2023-07-13T08:04:46;101462.47;;;19.05;100.00
24788;BME280;12883;52.662;5.196;2023-07-13T08:07:11;101471.19;;;19.24;100.00
24788;BME280;12883;52.662;5.196;2023-07-13T08:09:37;101461.13;;;19.31;100.00
24788;BME280;12883;52.662;5.196;2023-07-13T08:12:02;101469.00;;;19.21;100.00
24788;BME280;12883;52.662;5.196;2023-07-13T08:14:28;101462.38;;;19.40;100.00
24788;BME280;12883;52.662;5.196;2023-07-13T08:16:53;101442.28;;;19.19;100.00
24788;BME280;12883;52.662;5.196;2023-07-13T08:19:19;101463.19;;;19.40;100.00
24788;BME280;12883;52.662;5.196;2023-07-13T08:21:44;101484.66;;;19.52;100.00
24788;BME280;12883;52.662;5.196;2023-07-13T08:24:10;101443.22;;;19.25;100.00
24788;BME280;12883;52.662;5.196;2023-07-13T08:26:35;101489.66;;;19.60;100.00
24788;BME280;12883;52.662;5.196;2023-07-13T08:29:00;101491.56;;;19.59;100.00
24788;BME280;12883;52.662;5.196;2023-07-13T08:31:26;101426.38;;;19.18;100.00
24788;BME280;12883;52.662;5.196;2023-07-13T08:33:51;101467.28;;;19.43;100.00
24788;BME280;12883;52.662;5.196;2023-07-13T08:36:17;101511.25;;;19.76;100.00
24788;BME280;12883;52.662;5.196;2023-07-13T08:38:42;101498.09;;;19.80;100.00
24788;BME280;12883;52.662;5.196;2023-07-13T08:41:16;101506.31;;;20.01;100.00
24788;BME280;12883;52.662;5.196;2023-07-13T08:43:45;101467.34;;;19.76;100.00
24788;BME280;12883;52.662;5.196;2023-07-13T08:46:36;101509.06;;;19.90;100.00
24788;BME280;12883;52.662;5.196;2023-07-13T08:49:07;101439.84;;;19.46;100.00
24788;BME280;12883;52.662;5.196;2023-07-13T08:51:46;101510.34;;;19.71;100.00
24788;BME280;12883;52.662;5.196;2023-07-13T08:54:22;101526.66;;;19.64;100.00
24788;BME280;12883;52.662;5.196;2023-07-13T08:56:50;101514.66;;;19.72;100.00
24788;BME280;12883;52.662;5.196;2023-07-13T08:59:20;101458.16;;;19.60;100.00
24788;BME280;12883;52.662;5.196;2023-07-13T09:04:45;101448.22;;;19.61;100.00
24788;BME280;12883;52.662;5.196;2023-07-13T09:07:32;101525.16;;;20.01;100.00
24788;BME280;12883;52.662;5.196;2023-07-13T09:12:51;101521.69;;;20.17;100.00
24788;BME280;12883;52.662;5.196;2023-07-13T09:15:46;101487.16;;;20.14;100.00
24788;BME280;12883;52.662;5.196;2023-07-13T09:20:58;101532.00;;;20.20;100.00
24788;BME280;12883;52.662;5.196;2023-07-13T09:23:28;101560.84;;;20.36;100.00
24788;BME280;12883;52.662;5.196;2023-07-13T09:26:02;101538.19;;;20.37;100.00
24788;BME280;12883;52.662;5.196;2023-07-13T09:28:34;101500.31;;;20.27;100.00
24788;BME280;12883;52.662;5.196;2023-07-13T09:31:16;101518.44;;;20.48;100.00
24788;BME280;12883;52.662;5.196;2023-07-13T09:33:43;101534.84;;;20.63;100.00
24788;BME280;12883;52.662;5.196;2023-07-13T09:36:20;101545.94;;;20.66;100.00
24788;BME280;12883;52.662;5.196;2023-07-13T09:38:48;101549.63;;;20.77;100.00
24788;BME280;12883;52.662;5.196;2023-07-13T09:41:26;101506.25;;;20.46;100.00
24788;BME280;12883;52.662;5.196;2023-07-13T09:44:13;101549.22;;;20.68;100.00
24788;BME280;12883;52.662;5.196;2023-07-13T09:46:47;101555.44;;;20.69;100.00
24788;BME280;12883;52.662;5.196;2023-07-13T09:49:17;101538.91;;;20.82;100.00
24788;BME280;12883;52.662;5.196;2023-07-13T09:51:42;101539.91;;;20.92;100.00
24788;BME280;12883;52.662;5.196;2023-07-13T09:54:20;101539.41;;;21.17;100.00
24788;BME280;12883;52.662;5.196;2023-07-13T09:56:46;101553.06;;;21.10;100.00
24788;BME280;12883;52.662;5.196;2023-07-13T09:59:21;101538.06;;;20.98;100.00
24788;BME280;12883;52.662;5.196;2023-07-13T10:01:49;101555.47;;;21.07;100.00
24788;BME280;12883;52.662;5.196;2023-07-13T10:04:18;101545.94;;;21.21;100.00
24788;BME280;12883;52.662;5.196;2023-07-13T10:06:44;101555.97;;;21.25;100.00
24788;BME280;12883;52.662;5.196;2023-07-13T10:09:15;101562.13;;;21.42;100.00
24788;BME280;12883;52.662;5.196;2023-07-13T10:11:41;101551.22;;;21.32;100.00
24788;BME280;12883;52.662;5.196;2023-07-13T10:16:38;101565.78;;;21.31;100.00
24788;BME280;12883;52.662;5.196;2023-07-13T10:19:15;101510.72;;;21.11;100.00
24788;BME280;12883;52.662;5.196;2023-07-13T10:22:29;101569.47;;;21.47;100.00
24788;BME280;12883;52.662;5.196;2023-07-13T10:24:57;101537.84;;;21.42;100.00
24788;BME280;12883;52.662;5.196;2023-07-13T10:27:31;101581.44;;;21.51;100.00
24788;BME280;12883;52.662;5.196;2023-07-13T10:30:03;101584.16;;;21.56;100.00
24788;BME280;12883;52.662;5.196;2023-07-13T10:32:30;101579.03;;;21.54;100.00
24788;BME280;12883;52.662;5.196;2023-07-13T10:34:55;101587.31;;;21.48;100.00
24788;BME280;12883;52.662;5.196;2023-07-13T10:37:26;101592.59;;;21.38;100.00
24788;BME280;12883;52.662;5.196;2023-07-13T10:39:55;101558.13;;;21.23;100.00
24788;BME280;12883;52.662;5.196;2023-07-13T10:42:29;101604.34;;;21.48;100.00
24788;BME280;12883;52.662;5.196;2023-07-13T10:44:56;101606.91;;;21.38;100.00
24788;BME280;12883;52.662;5.196;2023-07-13T10:47:22;101607.38;;;21.52;100.00
24788;BME280;12883;52.662;5.196;2023-07-13T10:49:51;101603.16;;;21.61;100.00
24788;BME280;12883;52.662;5.196;2023-07-13T10:52:40;101608.06;;;21.64;100.00
24788;BME280;12883;52.662;5.196;2023-07-13T10:55:36;101608.00;;;21.80;100.00
24788;BME280;12883;52.662;5.196;2023-07-13T10:58:18;101608.81;;;21.81;100.00
24788;BME280;12883;52.662;5.196;2023-07-13T11:03:33;101608.34;;;22.10;100.00
24788;BME280;12883;52.662;5.196;2023-07-13T11:09:18;101623.19;;;22.08;97.78
24788;BME280;12883;52.662;5.196;2023-07-13T11:11:44;101638.31;;;22.09;99.04
24788;BME280;12883;52.662;5.196;2023-07-13T11:15:11;101631.38;;;21.91;91.47
24788;BME280;12883;52.662;5.196;2023-07-13T11:17:51;101636.72;;;21.86;92.62
24788;BME280;12883;52.662;5.196;2023-07-13T11:20:31;101630.16;;;22.04;96.89
24788;BME280;12883;52.662;5.196;2023-07-13T11:23:20;101634.91;;;21.92;94.90
24788;BME280;12883;52.662;5.196;2023-07-13T11:25:47;101639.66;;;22.06;96.47
24788;BME280;12883;52.662;5.196;2023-07-13T11:30:49;101615.09;;;21.86;96.79
24788;BME280;12883;52.662;5.196;2023-07-13T11:38:42;101615.00;;;22.03;95.31
24788;BME280;12883;52.662;5.196;2023-07-13T11:41:35;101636.44;;;22.09;96.86
24788;BME280;12883;52.662;5.196;2023-07-13T11:44:10;101638.72;;;21.96;95.76
24788;BME280;12883;52.662;5.196;2023-07-13T11:46:36;101643.06;;;21.97;96.69
24788;BME280;12883;52.662;5.196;2023-07-13T11:49:05;101640.25;;;21.87;94.34
24788;BME280;12883;52.662;5.196;2023-07-13T11:51:33;101638.47;;;21.97;94.36
24788;BME280;12883;52.662;5.196;2023-07-13T11:54:20;101610.97;;;21.79;92.20
24788;BME280;12883;52.662;5.196;2023-07-13T11:56:46;101634.53;;;21.83;91.39
24788;BME280;12883;52.662;5.196;2023-07-13T11:59:12;101625.50;;;21.73;90.70
24788;BME280;12883;52.662;5.196;2023-07-13T12:01:44;101657.47;;;22.02;92.33
24788;BME280;12883;52.662;5.196;2023-07-13T12:04:27;101648.00;;;22.05;94.18
24788;BME280;12883;52.662;5.196;2023-07-13T12:07:05;101652.22;;;22.17;92.93
24788;BME280;12883;52.662;5.196;2023-07-13T12:09:30;101642.03;;;22.03;91.30
24788;BME280;12883;52.662;5.196;2023-07-13T12:11:57;101658.81;;;22.05;92.98
24788;BME280;12883;52.662;5.196;2023-07-13T12:14:24;101653.84;;;21.92;92.22
24788;BME280;12883;52.662;5.196;2023-07-13T12:16:51;101568.72;;;21.51;91.00
24788;BME280;12883;52.662;5.196;2023-07-13T12:19:27;101661.34;;;21.90;91.13
24788;BME280;12883;52.662;5.196;2023-07-13T12:21:56;101652.06;;;22.02;94.86
24788;BME280;12883;52.662;5.196;2023-07-13T12:24:22;101661.09;;;22.13;95.04
24788;BME280;12883;52.662;5.196;2023-07-13T12:26:59;101671.16;;;21.96;89.70
24788;BME280;12883;52.662;5.196;2023-07-13T12:29:26;101678.13;;;22.13;91.31
24788;BME280;12883;52.662;5.196;2023-07-13T12:31:51;101649.59;;;22.01;93.38
24788;BME280;12883;52.662;5.196;2023-07-13T12:34:23;101662.09;;;22.07;93.12
24788;BME280;12883;52.662;5.196;2023-07-13T12:37:00;101657.31;;;22.14;95.91
24788;BME280;12883;52.662;5.196;2023-07-13T12:42:27;101653.00;;;22.18;94.36
24788;BME280;12883;52.662;5.196;2023-07-13T12:44:56;101588.72;;;21.72;95.02
24788;BME280;12883;52.662;5.196;2023-07-13T12:47:22;101663.94;;;22.28;98.01
24788;BME280;12883;52.662;5.196;2023-07-13T12:49:50;101662.31;;;22.27;98.12
24788;BME280;12883;52.662;5.196;2023-07-13T12:52:22;101654.97;;;22.22;99.95
24788;BME280;12883;52.662;5.196;2023-07-13T12:55:03;101644.50;;;22.04;91.62
24788;BME280;12883;52.662;5.196;2023-07-13T12:57:29;101637.47;;;21.82;91.99
24788;BME280;12883;52.662;5.196;2023-07-13T12:59:55;101660.72;;;22.04;93.44
24788;BME280;12883;52.662;5.196;2023-07-13T13:02:32;101631.59;;;21.85;95.10
24788;BME280;12883;52.662;5.196;2023-07-13T13:04:59;101670.31;;;22.17;96.68
24788;BME280;12883;52.662;5.196;2023-07-13T13:07:25;101670.38;;;22.22;95.59
24788;BME280;12883;52.662;5.196;2023-07-13T13:09:51;101666.03;;;22.21;97.04
24788;BME280;12883;52.662;5.196;2023-07-13T13:12:19;101645.88;;;22.07;98.23
24788;BME280;12883;52.662;5.196;2023-07-13T13:14:45;101666.03;;;22.21;94.86
24788;BME280;12883;52.662;5.196;2023-07-13T13:17:27;101672.47;;;22.15;94.50